sensor_id;sensor_type;location;lat;lon;timestamp;temperature;humidity
76838;DHT22;65797;47.352;8.164;2023-07-29T12:47:05;22.40;1.00
76838;DHT22;65797;47.352;8.164;2023-07-29T14:15:34;20.10;99.90
76838;DHT22;65797;47.352;8.164;2023-07-29T14:20:36;20.10;1.00
76838;DHT22;65797;47.352;8.164;2023-07-29T14:23:01;20.10;1.00
76838;DHT22;65797;47.352;8.164;2023-07-29T14:28:16;20.40;99.90
76838;DHT22;65797;47.352;8.164;2023-07-29T14:33:18;20.50;1.00
76838;DHT22;65797;47.352;8.164;2023-07-29T14:46:06;20.60;99.90
76838;DHT22;65797;47.352;8.164;2023-07-29T14:53:42;20.60;99.90
76838;DHT22;65797;47.352;8.164;2023-07-29T14:56:08;20.70;99.90
76838;DHT22;65797;47.352;8.164;2023-07-29T14:58:34;20.60;99.90
76838;DHT22;65797;47.352;8.164;2023-07-29T15:01:00;20.60;99.90
76838;DHT22;65797;47.352;8.164;2023-07-29T15:03:25;20.60;1.00
76838;DHT22;65797;47.352;8.164;2023-07-29T15:05:51;20.60;99.90
76838;DHT22;65797;47.352;8.164;2023-07-29T15:08:17;20.60;99.90
76838;DHT22;65797;47.352;8.164;2023-07-29T15:10:47;20.70;76.10
76838;DHT22;65797;47.352;8.164;2023-07-29T15:13:14;20.60;1.00
76838;DHT22;65797;47.352;8.164;2023-07-29T15:15:43;20.60;1.00
76838;DHT22;65797;47.352;8.164;2023-07-29T15:18:09;20.60;1.00
76838;DHT22;65797;47.352;8.164;2023-07-29T15:20:35;20.60;7.60
76838;DHT22;65797;47.352;8.164;2023-07-29T15:23:22;20.70;1.00
76838;DHT22;65797;47.352;8.164;2023-07-29T15:25:48;20.70;1.00
76838;DHT22;65797;47.352;8.164;2023-07-29T15:28:14;20.70;1.00
76838;DHT22;65797;47.352;8.164;2023-07-29T15:30:40;20.70;1.00
76838;DHT22;65797;47.352;8.164;2023-07-29T15:33:06;20.70;55.10
76838;DHT22;65797;47.352;8.164;2023-07-29T15:35:39;20.60;99.90
76838;DHT22;65797;47.352;8.164;2023-07-29T15:38:05;20.60;1.00
76838;DHT22;65797;47.352;8.164;2023-07-29T15:43:07;20.60;1.00
76838;DHT22;65797;47.352;8.164;2023-07-29T15:48:08;20.70;1.00
76838;DHT22;65797;47.352;8.164;2023-07-29T15:50:33;20.70;1.00
76838;DHT22;65797;47.352;8.164;2023-07-29T15:52:59;20.70;1.00
76838;DHT22;65797;47.352;8.164;2023-07-29T15:55:25;20.70;1.00
76838;DHT22;65797;47.352;8.164;2023-07-29T15:57:50;20.70;1.00
76838;DHT22;65797;47.352;8.164;2023-07-29T16:00:16;20.70;85.60
76838;DHT22;65797;47.352;8.164;2023-07-29T16:02:42;20.60;1.00
76838;DHT22;65797;47.352;8.164;2023-07-29T16:05:08;20.70;99.90
76838;DHT22;65797;47.352;8.164;2023-07-29T16:07:33;20.60;99.90
76838;DHT22;65797;47.352;8.164;2023-07-29T16:09:59;20.70;99.90
76838;DHT22;65797;47.352;8.164;2023-07-29T16:12:25;20.70;99.90
76838;DHT22;65797;47.352;8.164;2023-07-29T17:55:49;19.40;99.90
76838;DHT22;65797;47.352;8.164;2023-07-29T17:58:15;19.30;99.90
76838;DHT22;65797;47.352;8.164;2023-07-29T18:00:41;19.30;99.90
76838;DHT22;65797;47.352;8.164;2023-07-29T18:03:06;19.20;99.90
76838;DHT22;65797;47.352;8.164;2023-07-29T18:05:32;19.10;99.90
76838;DHT22;65797;47.352;8.164;2023-07-29T18:07:59;19.20;99.90
76838;DHT22;65797;47.352;8.164;2023-07-29T18:10:25;19.20;1.00
76838;DHT22;65797;47.352;8.164;2023-07-29T18:12:51;19.20;1.00
76838;DHT22;65797;47.352;8.164;2023-07-29T18:15:17;19.20;99.90
76838;DHT22;65797;47.352;8.164;2023-07-29T18:17:43;19.20;1.00
76838;DHT22;65797;47.352;8.164;2023-07-29T18:20:09;19.20;1.00
76838;DHT22;65797;47.352;8.164;2023-07-29T18:22:35;19.20;1.00
76838;DHT22;65797;47.352;8.164;2023-07-29T18:25:00;19.20;1.00
76838;DHT22;65797;47.352;8.164;2023-07-29T18:27:26;19.30;1.00
76838;DHT22;65797;47.352;8.164;2023-07-29T18:29:52;19.20;99.90
76838;DHT22;65797;47.352;8.164;2023-07-29T18:34:53;19.30;99.90
76838;DHT22;65797;47.352;8.164;2023-07-29T18:37:19;19.30;1.00
76838;DHT22;65797;47.352;8.164;2023-07-29T18:39:44;19.30;1.00
76838;DHT22;65797;47.352;8.164;2023-07-29T18:42:10;19.40;1.00
76838;DHT22;65797;47.352;8.164;2023-07-29T18:44:36;19.40;16.20
76838;DHT22;65797;47.352;8.164;2023-07-29T18:47:01;19.20;1.00
76838;DHT22;65797;47.352;8.164;2023-07-29T18:49:27;19.10;99.90
76838;DHT22;65797;47.352;8.164;2023-07-29T18:51:53;19.10;1.00
76838;DHT22;65797;47.352;8.164;2023-07-29T18:54:19;19.10;1.00
76838;DHT22;65797;47.352;8.164;2023-07-29T18:56:45;19.10;1.00
76838;DHT22;65797;47.352;8.164;2023-07-29T18:59:10;19.10;1.00
76838;DHT22;65797;47.352;8.164;2023-07-29T19:01:36;19.20;1.00
76838;DHT22;65797;47.352;8.164;2023-07-29T19:04:02;19.10;1.00
76838;DHT22;65797;47.352;8.164;2023-07-29T19:06:28;19.10;99.90
76838;DHT22;65797;47.352;8.164;2023-07-29T19:08:54;19.00;99.90
76838;DHT22;65797;47.352;8.164;2023-07-29T19:11:20;19.00;1.00
76838;DHT22;65797;47.352;8.164;2023-07-29T19:13:45;19.00;99.90
76838;DHT22;65797;47.352;8.164;2023-07-29T19:16:12;18.80;99.90
76838;DHT22;65797;47.352;8.164;2023-07-29T19:18:38;18.70;1.00
76838;DHT22;65797;47.352;8.164;2023-07-29T19:21:04;18.80;1.00
76838;DHT22;65797;47.352;8.164;2023-07-29T19:23:32;18.80;99.90
76838;DHT22;65797;47.352;8.164;2023-07-29T19:25:57;18.70;99.90
76838;DHT22;65797;47.352;8.164;2023-07-29T19:28:23;18.70;46.00
76838;DHT22;65797;47.352;8.164;2023-07-29T19:30:52;18.70;99.90
76838;DHT22;65797;47.352;8.164;2023-07-29T19:33:19;18.80;99.90
76838;DHT22;65797;47.352;8.164;2023-07-29T19:35:54;18.80;99.90
76838;DHT22;65797;47.352;8.164;2023-07-29T19:38:21;18.80;1.00
76838;DHT22;65797;47.352;8.164;2023-07-29T19:40:46;18.80;99.90
76838;DHT22;65797;47.352;8.164;2023-07-29T19:43:13;18.80;99.90
76838;DHT22;65797;47.352;8.164;2023-07-29T19:45:48;18.80;1.00
76838;DHT22;65797;47.352;8.164;2023-07-29T19:48:14;18.80;99.90
76838;DHT22;65797;47.352;8.164;2023-07-29T19:50:40;18.80;45.00
76838;DHT22;65797;47.352;8.164;2023-07-29T19:53:06;18.80;85.10
76838;DHT22;65797;47.352;8.164;2023-07-29T19:55:34;18.70;1.00
76838;DHT22;65797;47.352;8.164;2023-07-29T19:58:00;18.60;1.00
76838;DHT22;65797;47.352;8.164;2023-07-29T20:00:26;18.60;99.90
76838;DHT22;65797;47.352;8.164;2023-07-29T20:02:51;18.60;1.00
76838;DHT22;65797;47.352;8.164;2023-07-29T20:05:17;18.60;99.90
76838;DHT22;65797;47.352;8.164;2023-07-29T20:07:45;18.60;1.00
76838;DHT22;65797;47.352;8.164;2023-07-29T20:10:11;18.60;1.00
76838;DHT22;65797;47.352;8.164;2023-07-29T20:12:36;18.60;1.00
76838;DHT22;65797;47.352;8.164;2023-07-29T20:15:02;18.60;99.90
76838;DHT22;65797;47.352;8.164;2023-07-29T20:17:28;18.60;99.90
76838;DHT22;65797;47.352;8.164;2023-07-29T20:19:54;18.50;99.90
76838;DHT22;65797;47.352;8.164;2023-07-29T20:22:20;18.50;99.90
76838;DHT22;65797;47.352;8.164;2023-07-29T20:24:46;18.50;99.90
76838;DHT22;65797;47.352;8.164;2023-07-29T20:27:11;18.60;99.90
76838;DHT22;65797;47.352;8.164;2023-07-29T20:29:37;18.60;99.90
76838;DHT22;65797;47.352;8.164;2023-07-29T20:32:03;18.60;99.90
76838;DHT22;65797;47.352;8.164;2023-07-29T20:34:29;18.60;99.90
76838;DHT22;65797;47.352;8.164;2023-07-29T20:36:55;18.60;93.90
76838;DHT22;65797;47.352;8.164;2023-07-29T20:39:21;18.60;99.90
76838;DHT22;65797;47.352;8.164;2023-07-29T20:41:47;18.50;1.00
76838;DHT22;65797;47.352;8.164;2023-07-29T20:44:14;18.60;99.90
76838;DHT22;65797;47.352;8.164;2023-07-29T20:46:43;18.60;99.90
76838;DHT22;65797;47.352;8.164;2023-07-29T20:49:09;18.50;99.90
76838;DHT22;65797;47.352;8.164;2023-07-29T20:51:35;18.60;99.90
76838;DHT22;65797;47.352;8.164;2023-07-29T20:54:00;18.50;1.00
76838;DHT22;65797;47.352;8.164;2023-07-29T20:56:26;18.40;1.00
76838;DHT22;65797;47.352;8.164;2023-07-29T20:58:52;18.40;1.00
76838;DHT22;65797;47.352;8.164;2023-07-29T21:01:18;18.40;1.00
76838;DHT22;65797;47.352;8.164;2023-07-29T21:03:43;18.40;1.00
76838;DHT22;65797;47.352;8.164;2023-07-29T21:06:10;18.30;1.00
76838;DHT22;65797;47.352;8.164;2023-07-29T21:08:36;18.30;26.10
76838;DHT22;65797;47.352;8.164;2023-07-29T21:11:02;18.30;99.90
76838;DHT22;65797;47.352;8.164;2023-07-29T21:13:29;18.30;99.90
76838;DHT22;65797;47.352;8.164;2023-07-29T21:15:56;18.30;99.90
76838;DHT22;65797;47.352;8.164;2023-07-29T21:18:23;18.30;99.90
76838;DHT22;65797;47.352;8.164;2023-07-29T21:20:50;18.30;99.90
76838;DHT22;65797;47.352;8.164;2023-07-29T21:23:17;18.30;99.90
76838;DHT22;65797;47.352;8.164;2023-07-29T21:25:47;18.20;99.90
76838;DHT22;65797;47.352;8.164;2023-07-29T21:28:17;18.20;1.00
76838;DHT22;65797;47.352;8.164;2023-07-29T21:30:43;18.10;1.00
76838;DHT22;65797;47.352;8.164;2023-07-29T21:33:09;18.10;1.00
76838;DHT22;65797;47.352;8.164;2023-07-29T21:35:35;18.10;1.00
76838;DHT22;65797;47.352;8.164;2023-07-29T21:38:01;18.00;1.00
76838;DHT22;65797;47.352;8.164;2023-07-29T21:40:26;18.00;1.00
76838;DHT22;65797;47.352;8.164;2023-07-29T21:42:53;18.00;1.00
76838;DHT22;65797;47.352;8.164;2023-07-29T21:45:18;17.90;99.90
76838;DHT22;65797;47.352;8.164;2023-07-29T21:47:44;17.90;99.90
76838;DHT22;65797;47.352;8.164;2023-07-29T21:50:10;17.90;99.90
76838;DHT22;65797;47.352;8.164;2023-07-29T21:52:36;18.00;85.90
76838;DHT22;65797;47.352;8.164;2023-07-29T21:55:02;18.10;1.00
76838;DHT22;65797;47.352;8.164;2023-07-29T21:57:27;18.10;1.00
76838;DHT22;65797;47.352;8.164;2023-07-29T21:59:53;18.20;1.00
76838;DHT22;65797;47.352;8.164;2023-07-29T22:02:19;18.20;1.00
76838;DHT22;65797;47.352;8.164;2023-07-29T22:04:45;18.20;1.00
76838;DHT22;65797;47.352;8.164;2023-07-29T22:07:11;18.30;1.00
76838;DHT22;65797;47.352;8.164;2023-07-29T22:09:37;18.30;1.00
76838;DHT22;65797;47.352;8.164;2023-07-29T22:12:03;18.30;1.00
76838;DHT22;65797;47.352;8.164;2023-07-29T22:14:29;18.30;1.00
76838;DHT22;65797;47.352;8.164;2023-07-29T22:16:55;18.30;1.00
76838;DHT22;65797;47.352;8.164;2023-07-29T22:19:21;18.30;1.00
76838;DHT22;65797;47.352;8.164;2023-07-29T22:21:47;18.30;1.00
76838;DHT22;65797;47.352;8.164;2023-07-29T22:24:19;18.30;1.00
76838;DHT22;65797;47.352;8.164;2023-07-29T22:26:45;18.30;1.00
76838;DHT22;65797;47.352;8.164;2023-07-29T22:29:11;18.30;1.00
76838;DHT22;65797;47.352;8.164;2023-07-29T22:31:37;18.30;1.00
76838;DHT22;65797;47.352;8.164;2023-07-29T22:34:03;18.30;1.00
76838;DHT22;65797;47.352;8.164;2023-07-29T22:36:32;18.30;1.00
76838;DHT22;65797;47.352;8.164;2023-07-29T22:38:57;18.30;1.00
76838;DHT22;65797;47.352;8.164;2023-07-29T22:41:23;18.30;1.00
76838;DHT22;65797;47.352;8.164;2023-07-29T22:43:49;18.30;1.00
76838;DHT22;65797;47.352;8.164;2023-07-29T22:48:50;18.30;1.00
76838;DHT22;65797;47.352;8.164;2023-07-29T22:51:16;18.30;99.90
76838;DHT22;65797;47.352;8.164;2023-07-29T22:53:41;18.30;1.00
76838;DHT22;65797;47.352;8.164;2023-07-29T22:56:07;18.30;1.00
76838;DHT22;65797;47.352;8.164;2023-07-29T22:58:33;18.30;1.00
76838;DHT22;65797;47.352;8.164;2023-07-29T23:00:58;18.20;1.00
76838;DHT22;65797;47.352;8.164;2023-07-29T23:03:24;18.20;1.00
76838;DHT22;65797;47.352;8.164;2023-07-29T23:11:02;18.20;1.00
76838;DHT22;65797;47.352;8.164;2023-07-29T23:26:25;18.20;1.00
76838;DHT22;65797;47.352;8.164;2023-07-29T23:28:51;18.20;1.00
76838;DHT22;65797;47.352;8.164;2023-07-29T23:33:52;18.20;99.90
76838;DHT22;65797;47.352;8.164;2023-07-29T23:36:18;18.20;99.90
76838;DHT22;65797;47.352;8.164;2023-07-29T23:46:30;18.20;99.90
76838;DHT22;65797;47.352;8.164;2023-07-29T23:51:32;18.30;99.90
76838;DHT22;65797;47.352;8.164;2023-07-29T23:56:34;18.30;99.90
